sensor_id;sensor_type;location;lat;lon;timestamp;P1;durP1;ratioP1;P2;durP2;ratioP2
32196;SDS011;18697;42.770;23.400;2022-12-07T00:01:20;32.28;;;16.05;;
32196;SDS011;18697;42.770;23.400;2022-12-07T00:03:46;35.35;;;17.50;;
32196;SDS011;18697;42.770;23.400;2022-12-07T00:06:13;36.03;;;17.15;;
32196;SDS011;18697;42.770;23.400;2022-12-07T00:08:40;33.05;;;16.90;;
32196;SDS011;18697;42.770;23.400;2022-12-07T00:11:06;30.55;;;16.20;;
32196;SDS011;18697;42.770;23.400;2022-12-07T00:13:42;29.40;;;15.05;;
32196;SDS011;18697;42.770;23.400;2022-12-07T00:16:13;28.50;;;16.00;;
32196;SDS011;18697;42.770;23.400;2022-12-07T00:18:43;36.97;;;16.58;;
32196;SDS011;18697;42.770;23.400;2022-12-07T00:21:11;37.92;;;17.95;;
32196;SDS011;18697;42.770;23.400;2022-12-07T00:23:39;32.33;;;17.23;;
32196;SDS011;18697;42.770;23.400;2022-12-07T00:26:06;37.38;;;18.42;;
32196;SDS011;18697;42.770;23.400;2022-12-07T00:28:33;32.75;;;17.70;;
32196;SDS011;18697;42.770;23.400;2022-12-07T00:33:25;44.35;;;21.08;;
32196;SDS011;18697;42.770;23.400;2022-12-07T00:35:54;40.30;;;20.23;;
32196;SDS011;18697;42.770;23.400;2022-12-07T00:38:21;31.73;;;16.55;;
32196;SDS011;18697;42.770;23.400;2022-12-07T00:43:18;55.72;;;27.60;;
32196;SDS011;18697;42.770;23.400;2022-12-07T00:45:44;43.00;;;18.60;;
32196;SDS011;18697;42.770;23.400;2022-12-07T00:50:34;26.73;;;14.90;;
32196;SDS011;18697;42.770;23.400;2022-12-07T00:55:25;32.40;;;15.35;;
32196;SDS011;18697;42.770;23.400;2022-12-07T00:57:50;31.85;;;16.95;;
32196;SDS011;18697;42.770;23.400;2022-12-07T01:00:16;34.50;;;17.80;;
32196;SDS011;18697;42.770;23.400;2022-12-07T01:02:41;34.72;;;17.80;;
32196;SDS011;18697;42.770;23.400;2022-12-07T01:05:07;35.28;;;17.13;;
32196;SDS011;18697;42.770;23.400;2022-12-07T01:07:32;32.90;;;17.88;;
32196;SDS011;18697;42.770;23.400;2022-12-07T01:09:58;31.60;;;16.70;;
32196;SDS011;18697;42.770;23.400;2022-12-07T01:12:23;34.67;;;18.55;;
32196;SDS011;18697;42.770;23.400;2022-12-07T01:14:49;33.13;;;17.98;;
32196;SDS011;18697;42.770;23.400;2022-12-07T01:19:39;32.92;;;18.13;;
32196;SDS011;18697;42.770;23.400;2022-12-07T01:22:05;31.02;;;18.27;;
32196;SDS011;18697;42.770;23.400;2022-12-07T01:24:30;33.50;;;17.17;;
32196;SDS011;18697;42.770;23.400;2022-12-07T01:26:55;33.83;;;18.70;;
32196;SDS011;18697;42.770;23.400;2022-12-07T01:29:21;31.67;;;17.65;;
32196;SDS011;18697;42.770;23.400;2022-12-07T01:31:48;36.15;;;18.35;;
32196;SDS011;18697;42.770;23.400;2022-12-07T01:34:14;29.95;;;16.85;;
32196;SDS011;18697;42.770;23.400;2022-12-07T01:36:39;33.47;;;18.00;;
32196;SDS011;18697;42.770;23.400;2022-12-07T01:39:05;35.60;;;16.92;;
32196;SDS011;18697;42.770;23.400;2022-12-07T01:41:33;33.60;;;17.05;;
32196;SDS011;18697;42.770;23.400;2022-12-07T01:44:17;32.05;;;17.83;;
32196;SDS011;18697;42.770;23.400;2022-12-07T01:46:53;31.55;;;17.02;;
32196;SDS011;18697;42.770;23.400;2022-12-07T01:49:28;32.15;;;15.75;;
32196;SDS011;18697;42.770;23.400;2022-12-07T01:54:49;28.55;;;15.95;;
32196;SDS011;18697;42.770;23.400;2022-12-07T01:57:18;28.02;;;15.70;;
32196;SDS011;18697;42.770;23.400;2022-12-07T01:59:45;43.15;;;22.20;;
32196;SDS011;18697;42.770;23.400;2022-12-07T02:02:17;35.58;;;19.92;;
32196;SDS011;18697;42.770;23.400;2022-12-07T02:04:46;31.25;;;16.05;;
32196;SDS011;18697;42.770;23.400;2022-12-07T02:07:11;30.73;;;16.95;;
32196;SDS011;18697;42.770;23.400;2022-12-07T02:09:38;28.88;;;16.23;;
32196;SDS011;18697;42.770;23.400;2022-12-07T02:12:03;30.90;;;16.17;;
32196;SDS011;18697;42.770;23.400;2022-12-07T02:14:29;33.13;;;15.90;;
32196;SDS011;18697;42.770;23.400;2022-12-07T02:22:50;30.65;;;16.13;;
32196;SDS011;18697;42.770;23.400;2022-12-07T02:31:06;32.80;;;15.85;;
32196;SDS011;18697;42.770;23.400;2022-12-07T02:33:40;32.90;;;16.57;;
32196;SDS011;18697;42.770;23.400;2022-12-07T02:36:30;31.17;;;15.98;;
32196;SDS011;18697;42.770;23.400;2022-12-07T02:39:25;33.13;;;16.73;;
32196;SDS011;18697;42.770;23.400;2022-12-07T02:42:01;36.10;;;18.08;;
32196;SDS011;18697;42.770;23.400;2022-12-07T02:44:31;31.50;;;17.50;;
32196;SDS011;18697;42.770;23.400;2022-12-07T02:47:02;41.95;;;20.25;;
32196;SDS011;18697;42.770;23.400;2022-12-07T02:49:30;36.83;;;18.88;;
32196;SDS011;18697;42.770;23.400;2022-12-07T02:51:57;33.20;;;16.25;;
32196;SDS011;18697;42.770;23.400;2022-12-07T02:54:23;32.58;;;18.45;;
32196;SDS011;18697;42.770;23.400;2022-12-07T03:11:21;31.73;;;16.15;;
32196;SDS011;18697;42.770;23.400;2022-12-07T03:16:47;34.50;;;17.35;;
32196;SDS011;18697;42.770;23.400;2022-12-07T03:19:27;36.92;;;17.90;;
32196;SDS011;18697;42.770;23.400;2022-12-07T03:22:14;33.58;;;17.13;;
32196;SDS011;18697;42.770;23.400;2022-12-07T03:24:44;57.10;;;24.20;;
32196;SDS011;18697;42.770;23.400;2022-12-07T03:27:21;55.15;;;25.30;;
32196;SDS011;18697;42.770;23.400;2022-12-07T03:33:04;55.85;;;26.63;;
32196;SDS011;18697;42.770;23.400;2022-12-07T03:38:30;45.05;;;22.77;;
32196;SDS011;18697;42.770;23.400;2022-12-07T03:41:06;27.98;;;15.50;;
32196;SDS011;18697;42.770;23.400;2022-12-07T03:43:37;26.48;;;12.98;;
32196;SDS011;18697;42.770;23.400;2022-12-07T03:54:13;29.05;;;12.35;;
32196;SDS011;18697;42.770;23.400;2022-12-07T03:56:43;31.33;;;16.50;;
32196;SDS011;18697;42.770;23.400;2022-12-07T03:59:10;22.13;;;12.38;;
32196;SDS011;18697;42.770;23.400;2022-12-07T04:01:37;24.63;;;11.80;;
32196;SDS011;18697;42.770;23.400;2022-12-07T04:04:03;30.45;;;12.48;;
32196;SDS011;18697;42.770;23.400;2022-12-07T04:06:28;21.17;;;12.23;;
32196;SDS011;18697;42.770;23.400;2022-12-07T04:08:54;24.83;;;12.43;;
32196;SDS011;18697;42.770;23.400;2022-12-07T04:11:20;112.55;;;54.63;;
32196;SDS011;18697;42.770;23.400;2022-12-07T04:13:45;26.88;;;15.20;;
32196;SDS011;18697;42.770;23.400;2022-12-07T04:16:29;26.45;;;15.40;;
32196;SDS011;18697;42.770;23.400;2022-12-07T04:21:20;24.85;;;14.10;;
32196;SDS011;18697;42.770;23.400;2022-12-07T04:23:45;26.67;;;17.52;;
32196;SDS011;18697;42.770;23.400;2022-12-07T04:26:10;23.75;;;12.98;;
32196;SDS011;18697;42.770;23.400;2022-12-07T04:28:36;29.92;;;15.88;;
32196;SDS011;18697;42.770;23.400;2022-12-07T04:31:01;32.85;;;18.60;;
32196;SDS011;18697;42.770;23.400;2022-12-07T04:33:27;26.48;;;17.10;;
32196;SDS011;18697;42.770;23.400;2022-12-07T04:35:52;26.75;;;13.45;;
32196;SDS011;18697;42.770;23.400;2022-12-07T04:40:43;25.77;;;11.88;;
32196;SDS011;18697;42.770;23.400;2022-12-07T04:43:08;22.85;;;12.18;;
32196;SDS011;18697;42.770;23.400;2022-12-07T04:45:34;28.50;;;15.75;;
32196;SDS011;18697;42.770;23.400;2022-12-07T04:47:59;19.75;;;11.65;;
32196;SDS011;18697;42.770;23.400;2022-12-07T04:50:24;23.10;;;11.52;;
32196;SDS011;18697;42.770;23.400;2022-12-07T04:52:50;25.42;;;13.63;;
32196;SDS011;18697;42.770;23.400;2022-12-07T04:55:15;20.80;;;12.52;;
32196;SDS011;18697;42.770;23.400;2022-12-07T04:57:40;22.42;;;12.43;;
32196;SDS011;18697;42.770;23.400;2022-12-07T05:00:06;24.08;;;12.40;;
32196;SDS011;18697;42.770;23.400;2022-12-07T05:02:32;21.92;;;12.30;;
32196;SDS011;18697;42.770;23.400;2022-12-07T05:04:57;21.25;;;11.90;;
32196;SDS011;18697;42.770;23.400;2022-12-07T05:09:48;26.52;;;12.88;;
32196;SDS011;18697;42.770;23.400;2022-12-07T05:14:39;32.92;;;17.92;;
32196;SDS011;18697;42.770;23.400;2022-12-07T05:17:04;26.98;;;15.65;;
32196;SDS011;18697;42.770;23.400;2022-12-07T05:19:29;31.10;;;14.38;;
32196;SDS011;18697;42.770;23.400;2022-12-07T05:21:55;31.17;;;17.25;;
32196;SDS011;18697;42.770;23.400;2022-12-07T05:24:20;42.88;;;25.60;;
32196;SDS011;18697;42.770;23.400;2022-12-07T05:26:46;40.20;;;23.83;;
32196;SDS011;18697;42.770;23.400;2022-12-07T05:29:12;43.50;;;21.88;;
32196;SDS011;18697;42.770;23.400;2022-12-07T05:31:39;42.35;;;29.70;;
32196;SDS011;18697;42.770;23.400;2022-12-07T05:36:30;25.83;;;14.13;;
32196;SDS011;18697;42.770;23.400;2022-12-07T05:38:57;21.90;;;12.23;;
32196;SDS011;18697;42.770;23.400;2022-12-07T05:41:23;24.77;;;12.13;;
32196;SDS011;18697;42.770;23.400;2022-12-07T05:44:07;21.10;;;11.07;;
32196;SDS011;18697;42.770;23.400;2022-12-07T05:48:58;70.55;;;27.85;;
32196;SDS011;18697;42.770;23.400;2022-12-07T05:51:23;43.30;;;21.00;;
32196;SDS011;18697;42.770;23.400;2022-12-07T05:53:49;30.27;;;15.02;;
32196;SDS011;18697;42.770;23.400;2022-12-07T05:56:14;32.40;;;18.25;;
32196;SDS011;18697;42.770;23.400;2022-12-07T05:58:40;37.85;;;20.40;;
32196;SDS011;18697;42.770;23.400;2022-12-07T06:01:24;31.17;;;18.45;;
32196;SDS011;18697;42.770;23.400;2022-12-07T06:06:15;29.88;;;15.68;;
32196;SDS011;18697;42.770;23.400;2022-12-07T06:08:40;24.27;;;13.57;;
32196;SDS011;18697;42.770;23.400;2022-12-07T06:11:05;150.48;;;93.72;;
32196;SDS011;18697;42.770;23.400;2022-12-07T06:13:49;76.47;;;45.38;;
32196;SDS011;18697;42.770;23.400;2022-12-07T06:18:40;33.50;;;21.02;;
32196;SDS011;18697;42.770;23.400;2022-12-07T06:21:05;31.38;;;18.92;;
32196;SDS011;18697;42.770;23.400;2022-12-07T06:23:31;24.58;;;15.10;;
32196;SDS011;18697;42.770;23.400;2022-12-07T06:25:56;26.30;;;15.55;;
32196;SDS011;18697;42.770;23.400;2022-12-07T06:28:22;27.35;;;16.23;;
32196;SDS011;18697;42.770;23.400;2022-12-07T06:30:47;27.48;;;15.95;;
32196;SDS011;18697;42.770;23.400;2022-12-07T06:33:12;37.50;;;18.33;;
32196;SDS011;18697;42.770;23.400;2022-12-07T06:38:03;26.90;;;13.75;;
32196;SDS011;18697;42.770;23.400;2022-12-07T06:40:28;29.42;;;14.50;;
32196;SDS011;18697;42.770;23.400;2022-12-07T06:42:54;25.80;;;14.18;;
32196;SDS011;18697;42.770;23.400;2022-12-07T06:45:20;20.25;;;12.60;;
32196;SDS011;18697;42.770;23.400;2022-12-07T06:47:45;29.70;;;15.55;;
32196;SDS011;18697;42.770;23.400;2022-12-07T06:50:10;33.88;;;17.60;;
32196;SDS011;18697;42.770;23.400;2022-12-07T06:52:36;34.20;;;17.30;;
32196;SDS011;18697;42.770;23.400;2022-12-07T06:57:27;31.58;;;15.98;;
32196;SDS011;18697;42.770;23.400;2022-12-07T06:59:52;32.13;;;16.60;;
32196;SDS011;18697;42.770;23.400;2022-12-07T07:02:17;25.67;;;14.93;;
32196;SDS011;18697;42.770;23.400;2022-12-07T07:07:08;22.05;;;12.23;;
32196;SDS011;18697;42.770;23.400;2022-12-07T07:09:34;17.25;;;10.88;;
32196;SDS011;18697;42.770;23.400;2022-12-07T07:11:59;17.90;;;11.35;;
32196;SDS011;18697;42.770;23.400;2022-12-07T07:14:25;21.48;;;12.55;;
32196;SDS011;18697;42.770;23.400;2022-12-07T07:16:50;24.83;;;13.18;;
32196;SDS011;18697;42.770;23.400;2022-12-07T07:19:15;23.17;;;13.00;;
32196;SDS011;18697;42.770;23.400;2022-12-07T07:21:41;21.75;;;13.48;;
32196;SDS011;18697;42.770;23.400;2022-12-07T07:24:07;69.00;;;33.40;;
32196;SDS011;18697;42.770;23.400;2022-12-07T07:28:57;34.28;;;19.50;;
32196;SDS011;18697;42.770;23.400;2022-12-07T07:31:23;30.13;;;17.40;;
32196;SDS011;18697;42.770;23.400;2022-12-07T07:33:48;33.25;;;17.42;;
32196;SDS011;18697;42.770;23.400;2022-12-07T07:38:39;33.67;;;15.90;;
32196;SDS011;18697;42.770;23.400;2022-12-07T07:41:04;34.63;;;17.90;;
32196;SDS011;18697;42.770;23.400;2022-12-07T07:43:30;34.40;;;19.65;;
32196;SDS011;18697;42.770;23.400;2022-12-07T07:45:55;49.88;;;25.30;;
32196;SDS011;18697;42.770;23.400;2022-12-07T07:48:21;43.72;;;24.33;;
32196;SDS011;18697;42.770;23.400;2022-12-07T07:50:47;45.15;;;25.77;;
32196;SDS011;18697;42.770;23.400;2022-12-07T07:53:13;43.33;;;25.48;;
32196;SDS011;18697;42.770;23.400;2022-12-07T07:55:38;55.75;;;34.42;;
32196;SDS011;18697;42.770;23.400;2022-12-07T07:58:04;76.75;;;47.75;;
32196;SDS011;18697;42.770;23.400;2022-12-07T08:02:54;76.72;;;48.88;;
32196;SDS011;18697;42.770;23.400;2022-12-07T08:07:45;53.40;;;28.02;;
32196;SDS011;18697;42.770;23.400;2022-12-07T08:12:37;64.05;;;34.25;;
32196;SDS011;18697;42.770;23.400;2022-12-07T08:15:24;44.25;;;25.20;;
32196;SDS011;18697;42.770;23.400;2022-12-07T08:17:51;44.70;;;24.88;;
32196;SDS011;18697;42.770;23.400;2022-12-07T08:20:17;44.40;;;23.92;;
32196;SDS011;18697;42.770;23.400;2022-12-07T08:22:42;50.28;;;25.27;;
32196;SDS011;18697;42.770;23.400;2022-12-07T08:25:08;58.63;;;27.98;;
32196;SDS011;18697;42.770;23.400;2022-12-07T08:29:58;59.78;;;26.92;;
32196;SDS011;18697;42.770;23.400;2022-12-07T08:32:24;61.78;;;27.63;;
32196;SDS011;18697;42.770;23.400;2022-12-07T08:37:14;55.47;;;27.00;;
32196;SDS011;18697;42.770;23.400;2022-12-07T08:42:05;49.50;;;25.60;;
32196;SDS011;18697;42.770;23.400;2022-12-07T08:44:31;43.50;;;23.10;;
32196;SDS011;18697;42.770;23.400;2022-12-07T08:46:58;43.05;;;22.77;;
32196;SDS011;18697;42.770;23.400;2022-12-07T08:49:41;42.63;;;22.52;;
32196;SDS011;18697;42.770;23.400;2022-12-07T08:52:11;39.17;;;20.55;;
32196;SDS011;18697;42.770;23.400;2022-12-07T08:54:36;34.58;;;18.77;;
32196;SDS011;18697;42.770;23.400;2022-12-07T08:57:04;40.63;;;19.50;;
32196;SDS011;18697;42.770;23.400;2022-12-07T08:59:31;40.63;;;21.08;;
32196;SDS011;18697;42.770;23.400;2022-12-07T09:01:59;52.30;;;22.33;;
32196;SDS011;18697;42.770;23.400;2022-12-07T09:04:25;58.33;;;27.50;;
32196;SDS011;18697;42.770;23.400;2022-12-07T09:09:15;62.50;;;27.00;;
32196;SDS011;18697;42.770;23.400;2022-12-07T09:14:06;47.38;;;23.27;;
32196;SDS011;18697;42.770;23.400;2022-12-07T09:18:57;45.10;;;22.80;;
32196;SDS011;18697;42.770;23.400;2022-12-07T09:23:48;52.30;;;23.92;;
32196;SDS011;18697;42.770;23.400;2022-12-07T09:26:13;46.85;;;23.20;;
32196;SDS011;18697;42.770;23.400;2022-12-07T09:31:04;45.22;;;21.27;;
32196;SDS011;18697;42.770;23.400;2022-12-07T09:33:30;41.42;;;20.48;;
32196;SDS011;18697;42.770;23.400;2022-12-07T09:35:56;46.72;;;22.83;;
32196;SDS011;18697;42.770;23.400;2022-12-07T09:38:21;47.85;;;24.42;;
32196;SDS011;18697;42.770;23.400;2022-12-07T09:40:47;49.45;;;22.75;;
32196;SDS011;18697;42.770;23.400;2022-12-07T09:45:43;45.80;;;23.55;;
32196;SDS011;18697;42.770;23.400;2022-12-07T09:48:25;35.97;;;17.45;;
32196;SDS011;18697;42.770;23.400;2022-12-07T09:51:10;39.70;;;20.38;;
32196;SDS011;18697;42.770;23.400;2022-12-07T09:53:40;39.95;;;21.55;;
32196;SDS011;18697;42.770;23.400;2022-12-07T09:56:08;38.47;;;18.60;;
32196;SDS011;18697;42.770;23.400;2022-12-07T09:58:37;36.55;;;18.50;;
32196;SDS011;18697;42.770;23.400;2022-12-07T10:01:11;39.45;;;19.42;;
32196;SDS011;18697;42.770;23.400;2022-12-07T10:03:41;42.40;;;21.40;;
32196;SDS011;18697;42.770;23.400;2022-12-07T10:06:13;42.00;;;18.80;;
32196;SDS011;18697;42.770;23.400;2022-12-07T10:08:39;34.70;;;18.85;;
32196;SDS011;18697;42.770;23.400;2022-12-07T10:11:06;37.10;;;19.42;;
32196;SDS011;18697;42.770;23.400;2022-12-07T10:13:46;39.72;;;19.52;;
32196;SDS011;18697;42.770;23.400;2022-12-07T10:16:35;36.00;;;18.80;;
32196;SDS011;18697;42.770;23.400;2022-12-07T10:19:23;34.25;;;19.38;;
32196;SDS011;18697;42.770;23.400;2022-12-07T10:22:12;40.55;;;19.13;;
32196;SDS011;18697;42.770;23.400;2022-12-07T10:24:40;40.00;;;21.15;;
32196;SDS011;18697;42.770;23.400;2022-12-07T10:27:17;42.30;;;24.08;;
32196;SDS011;18697;42.770;23.400;2022-12-07T10:29:51;54.25;;;23.92;;
32196;SDS011;18697;42.770;23.400;2022-12-07T10:34:43;38.58;;;20.00;;
32196;SDS011;18697;42.770;23.400;2022-12-07T10:42:18;32.95;;;18.20;;
32196;SDS011;18697;42.770;23.400;2022-12-07T10:45:13;35.45;;;18.20;;
32196;SDS011;18697;42.770;23.400;2022-12-07T10:53:30;46.03;;;25.45;;
32196;SDS011;18697;42.770;23.400;2022-12-07T11:01:42;91.72;;;36.25;;
32196;SDS011;18697;42.770;23.400;2022-12-07T11:06:56;48.35;;;21.83;;
32196;SDS011;18697;42.770;23.400;2022-12-07T11:25:42;52.85;;;27.48;;
32196;SDS011;18697;42.770;23.400;2022-12-07T11:28:17;38.70;;;18.15;;
32196;SDS011;18697;42.770;23.400;2022-12-07T11:33:47;51.00;;;27.58;;
32196;SDS011;18697;42.770;23.400;2022-12-07T11:41:22;41.60;;;20.92;;
32196;SDS011;18697;42.770;23.400;2022-12-07T11:44:38;37.67;;;18.10;;
32196;SDS011;18697;42.770;23.400;2022-12-07T11:47:01;35.13;;;17.65;;
32196;SDS011;18697;42.770;23.400;2022-12-07T11:51:57;36.50;;;18.30;;
32196;SDS011;18697;42.770;23.400;2022-12-07T11:54:28;30.77;;;18.05;;
32196;SDS011;18697;42.770;23.400;2022-12-07T11:57:03;32.78;;;16.25;;
32196;SDS011;18697;42.770;23.400;2022-12-07T11:59:42;37.45;;;18.50;;
32196;SDS011;18697;42.770;23.400;2022-12-07T12:02:57;34.05;;;17.23;;
32196;SDS011;18697;42.770;23.400;2022-12-07T12:05:15;33.10;;;17.52;;
32196;SDS011;18697;42.770;23.400;2022-12-07T12:07:43;38.28;;;17.88;;
32196;SDS011;18697;42.770;23.400;2022-12-07T12:25:42;74.50;;;29.35;;
32196;SDS011;18697;42.770;23.400;2022-12-07T12:28:29;25.33;;;14.38;;
32196;SDS011;18697;42.770;23.400;2022-12-07T12:38:51;22.50;;;12.57;;
32196;SDS011;18697;42.770;23.400;2022-12-07T12:44:01;25.85;;;12.70;;
32196;SDS011;18697;42.770;23.400;2022-12-07T12:51:42;32.17;;;13.90;;
32196;SDS011;18697;42.770;23.400;2022-12-07T12:54:18;20.17;;;12.32;;
32196;SDS011;18697;42.770;23.400;2022-12-07T12:56:48;24.85;;;13.20;;
32196;SDS011;18697;42.770;23.400;2022-12-07T13:01:47;29.52;;;14.40;;
32196;SDS011;18697;42.770;23.400;2022-12-07T13:04:17;28.85;;;13.85;;
32196;SDS011;18697;42.770;23.400;2022-12-07T13:07:11;29.95;;;14.35;;
32196;SDS011;18697;42.770;23.400;2022-12-07T13:09:38;25.45;;;13.68;;
32196;SDS011;18697;42.770;23.400;2022-12-07T13:12:12;28.27;;;14.10;;
32196;SDS011;18697;42.770;23.400;2022-12-07T13:14:58;24.80;;;13.52;;
32196;SDS011;18697;42.770;23.400;2022-12-07T13:19:59;30.95;;;14.68;;
32196;SDS011;18697;42.770;23.400;2022-12-07T13:27:39;27.13;;;14.00;;
32196;SDS011;18697;42.770;23.400;2022-12-07T13:30:16;42.42;;;18.25;;
32196;SDS011;18697;42.770;23.400;2022-12-07T13:32:52;47.67;;;21.70;;
32196;SDS011;18697;42.770;23.400;2022-12-07T13:35:35;46.08;;;18.33;;
32196;SDS011;18697;42.770;23.400;2022-12-07T13:38:13;39.83;;;19.45;;
32196;SDS011;18697;42.770;23.400;2022-12-07T13:41:11;26.70;;;12.55;;
32196;SDS011;18697;42.770;23.400;2022-12-07T13:44:22;27.08;;;12.95;;
32196;SDS011;18697;42.770;23.400;2022-12-07T13:46:40;39.05;;;21.83;;
32196;SDS011;18697;42.770;23.400;2022-12-07T13:49:23;20.30;;;12.35;;
32196;SDS011;18697;42.770;23.400;2022-12-07T13:51:50;22.45;;;11.82;;
32196;SDS011;18697;42.770;23.400;2022-12-07T13:54:17;26.48;;;12.23;;
32196;SDS011;18697;42.770;23.400;2022-12-07T13:56:43;24.77;;;14.05;;
32196;SDS011;18697;42.770;23.400;2022-12-07T13:59:22;27.40;;;14.75;;
32196;SDS011;18697;42.770;23.400;2022-12-07T14:01:50;24.02;;;12.65;;
32196;SDS011;18697;42.770;23.400;2022-12-07T14:04:18;31.52;;;18.65;;
32196;SDS011;18697;42.770;23.400;2022-12-07T14:06:58;35.17;;;17.38;;
32196;SDS011;18697;42.770;23.400;2022-12-07T14:09:26;24.75;;;13.20;;
32196;SDS011;18697;42.770;23.400;2022-12-07T14:11:54;62.78;;;35.35;;
32196;SDS011;18697;42.770;23.400;2022-12-07T14:14:30;27.10;;;13.73;;
32196;SDS011;18697;42.770;23.400;2022-12-07T14:22:08;24.05;;;11.95;;
32196;SDS011;18697;42.770;23.400;2022-12-07T14:24:44;70.13;;;32.28;;
32196;SDS011;18697;42.770;23.400;2022-12-07T14:27:20;66.82;;;34.88;;
32196;SDS011;18697;42.770;23.400;2022-12-07T14:29:48;48.42;;;26.63;;
32196;SDS011;18697;42.770;23.400;2022-12-07T14:37:42;41.28;;;20.50;;
32196;SDS011;18697;42.770;23.400;2022-12-07T14:40:13;31.58;;;15.10;;
32196;SDS011;18697;42.770;23.400;2022-12-07T14:42:44;32.42;;;14.70;;
32196;SDS011;18697;42.770;23.400;2022-12-07T14:45:15;24.20;;;13.25;;
32196;SDS011;18697;42.770;23.400;2022-12-07T14:47:43;36.67;;;15.70;;
32196;SDS011;18697;42.770;23.400;2022-12-07T14:50:13;27.10;;;15.50;;
32196;SDS011;18697;42.770;23.400;2022-12-07T14:52:43;52.53;;;22.42;;
32196;SDS011;18697;42.770;23.400;2022-12-07T14:57:58;54.47;;;21.50;;
32196;SDS011;18697;42.770;23.400;2022-12-07T15:00:26;46.38;;;21.05;;
32196;SDS011;18697;42.770;23.400;2022-12-07T15:02:54;37.53;;;18.50;;
32196;SDS011;18697;42.770;23.400;2022-12-07T15:05:20;76.13;;;38.97;;
32196;SDS011;18697;42.770;23.400;2022-12-07T15:07:46;97.90;;;44.50;;
32196;SDS011;18697;42.770;23.400;2022-12-07T15:10:17;131.43;;;56.83;;
32196;SDS011;18697;42.770;23.400;2022-12-07T15:12:47;130.40;;;57.22;;
32196;SDS011;18697;42.770;23.400;2022-12-07T15:15:13;162.18;;;77.15;;
32196;SDS011;18697;42.770;23.400;2022-12-07T15:17:39;147.40;;;72.72;;
32196;SDS011;18697;42.770;23.400;2022-12-07T15:20:05;152.63;;;63.33;;
32196;SDS011;18697;42.770;23.400;2022-12-07T15:22:33;102.15;;;49.25;;
32196;SDS011;18697;42.770;23.400;2022-12-07T15:24:58;57.50;;;30.50;;
32196;SDS011;18697;42.770;23.400;2022-12-07T15:29:49;40.85;;;22.00;;
32196;SDS011;18697;42.770;23.400;2022-12-07T15:32:14;38.22;;;19.38;;
32196;SDS011;18697;42.770;23.400;2022-12-07T15:34:40;57.47;;;28.75;;
32196;SDS011;18697;42.770;23.400;2022-12-07T15:39:31;96.93;;;41.80;;
32196;SDS011;18697;42.770;23.400;2022-12-07T15:44:22;279.65;;;115.25;;
32196;SDS011;18697;42.770;23.400;2022-12-07T15:47:06;354.83;;;143.60;;
32196;SDS011;18697;42.770;23.400;2022-12-07T15:49:31;317.38;;;137.85;;
32196;SDS011;18697;42.770;23.400;2022-12-07T15:51:56;313.80;;;131.02;;
32196;SDS011;18697;42.770;23.400;2022-12-07T15:54:23;232.30;;;101.13;;
32196;SDS011;18697;42.770;23.400;2022-12-07T15:56:51;226.82;;;94.50;;
32196;SDS011;18697;42.770;23.400;2022-12-07T15:59:16;341.25;;;129.02;;
32196;SDS011;18697;42.770;23.400;2022-12-07T16:01:42;363.45;;;145.38;;
32196;SDS011;18697;42.770;23.400;2022-12-07T16:06:33;45.60;;;22.40;;
32196;SDS011;18697;42.770;23.400;2022-12-07T16:08:59;64.82;;;29.30;;
32196;SDS011;18697;42.770;23.400;2022-12-07T16:13:50;78.15;;;35.58;;
32196;SDS011;18697;42.770;23.400;2022-12-07T16:16:16;51.72;;;28.85;;
32196;SDS011;18697;42.770;23.400;2022-12-07T16:18:43;69.15;;;31.85;;
32196;SDS011;18697;42.770;23.400;2022-12-07T16:21:09;63.35;;;29.55;;
32196;SDS011;18697;42.770;23.400;2022-12-07T16:23:35;85.13;;;35.78;;
32196;SDS011;18697;42.770;23.400;2022-12-07T16:26:05;64.68;;;28.40;;
32196;SDS011;18697;42.770;23.400;2022-12-07T16:28:41;64.55;;;27.77;;
32196;SDS011;18697;42.770;23.400;2022-12-07T16:31:09;67.32;;;32.25;;
32196;SDS011;18697;42.770;23.400;2022-12-07T16:33:37;63.58;;;30.67;;
32196;SDS011;18697;42.770;23.400;2022-12-07T16:36:04;65.68;;;31.13;;
32196;SDS011;18697;42.770;23.400;2022-12-07T16:38:31;131.00;;;55.20;;
32196;SDS011;18697;42.770;23.400;2022-12-07T16:40:57;136.48;;;58.70;;
32196;SDS011;18697;42.770;23.400;2022-12-07T16:43:23;117.50;;;51.42;;
32196;SDS011;18697;42.770;23.400;2022-12-07T16:48:14;64.90;;;27.63;;
32196;SDS011;18697;42.770;23.400;2022-12-07T16:50:40;46.17;;;22.23;;
32196;SDS011;18697;42.770;23.400;2022-12-07T16:53:10;38.63;;;18.63;;
32196;SDS011;18697;42.770;23.400;2022-12-07T16:55:39;47.47;;;24.83;;
32196;SDS011;18697;42.770;23.400;2022-12-07T16:58:06;50.90;;;24.77;;
32196;SDS011;18697;42.770;23.400;2022-12-07T17:00:33;44.47;;;20.90;;
32196;SDS011;18697;42.770;23.400;2022-12-07T17:02:59;34.00;;;18.83;;
32196;SDS011;18697;42.770;23.400;2022-12-07T17:05:25;34.35;;;19.35;;
32196;SDS011;18697;42.770;23.400;2022-12-07T17:07:53;24.70;;;17.30;;
32196;SDS011;18697;42.770;23.400;2022-12-07T17:10:19;31.77;;;16.52;;
32196;SDS011;18697;42.770;23.400;2022-12-07T17:12:45;31.50;;;16.90;;
32196;SDS011;18697;42.770;23.400;2022-12-07T17:15:11;30.75;;;18.63;;
32196;SDS011;18697;42.770;23.400;2022-12-07T17:17:46;27.50;;;16.60;;
32196;SDS011;18697;42.770;23.400;2022-12-07T17:20:17;31.55;;;18.38;;
32196;SDS011;18697;42.770;23.400;2022-12-07T17:22:43;33.28;;;17.95;;
32196;SDS011;18697;42.770;23.400;2022-12-07T17:25:09;28.17;;;17.58;;
32196;SDS011;18697;42.770;23.400;2022-12-07T17:30:00;33.50;;;16.77;;
32196;SDS011;18697;42.770;23.400;2022-12-07T17:32:26;41.00;;;19.48;;
32196;SDS011;18697;42.770;23.400;2022-12-07T17:37:17;45.42;;;22.63;;
32196;SDS011;18697;42.770;23.400;2022-12-07T17:42:08;51.58;;;23.73;;
32196;SDS011;18697;42.770;23.400;2022-12-07T17:44:53;54.88;;;29.95;;
32196;SDS011;18697;42.770;23.400;2022-12-07T17:47:18;58.40;;;30.77;;
32196;SDS011;18697;42.770;23.400;2022-12-07T17:49:46;45.97;;;23.58;;
32196;SDS011;18697;42.770;23.400;2022-12-07T17:52:13;57.90;;;26.42;;
32196;SDS011;18697;42.770;23.400;2022-12-07T17:54:57;62.28;;;29.25;;
32196;SDS011;18697;42.770;23.400;2022-12-07T17:57:23;117.18;;;50.25;;
32196;SDS011;18697;42.770;23.400;2022-12-07T18:02:15;108.82;;;35.22;;
32196;SDS011;18697;42.770;23.400;2022-12-07T18:04:40;66.70;;;26.48;;
32196;SDS011;18697;42.770;23.400;2022-12-07T18:07:06;47.60;;;21.50;;
32196;SDS011;18697;42.770;23.400;2022-12-07T18:09:33;37.00;;;18.80;;
32196;SDS011;18697;42.770;23.400;2022-12-07T18:11:59;31.70;;;15.45;;
32196;SDS011;18697;42.770;23.400;2022-12-07T18:14:25;31.08;;;14.13;;
32196;SDS011;18697;42.770;23.400;2022-12-07T18:16:51;27.55;;;13.55;;
32196;SDS011;18697;42.770;23.400;2022-12-07T18:19:16;29.88;;;14.93;;
32196;SDS011;18697;42.770;23.400;2022-12-07T18:21:42;23.42;;;13.27;;
32196;SDS011;18697;42.770;23.400;2022-12-07T18:24:09;28.40;;;13.77;;
32196;SDS011;18697;42.770;23.400;2022-12-07T18:26:36;29.55;;;14.15;;